sensor_id;sensor_type;location;lat;lon;timestamp;P1;durP1;ratioP1;P2;durP2;ratioP2
8100;SDS011;4093;53.470;9.832;2024-03-23T00:53:37;25.43;;;5.83;;
8100;SDS011;4093;53.470;9.832;2024-03-23T00:56:03;24.77;;;5.73;;
8100;SDS011;4093;53.470;9.832;2024-03-23T00:58:30;24.70;;;5.20;;
8100;SDS011;4093;53.470;9.832;2024-03-23T01:00:56;21.37;;;5.77;;
8100;SDS011;4093;53.470;9.832;2024-03-23T01:03:23;20.73;;;5.60;;
8100;SDS011;4093;53.470;9.832;2024-03-23T01:05:48;27.17;;;5.83;;
8100;SDS011;4093;53.470;9.832;2024-03-23T01:08:15;24.20;;;5.77;;
8100;SDS011;4093;53.470;9.832;2024-03-23T01:10:42;19.30;;;5.97;;
8100;SDS011;4093;53.470;9.832;2024-03-23T01:13:09;24.30;;;5.47;;
8100;SDS011;4093;53.470;9.832;2024-03-23T01:15:35;21.53;;;5.60;;
8100;SDS011;4093;53.470;9.832;2024-03-23T01:18:03;20.63;;;5.80;;
8100;SDS011;4093;53.470;9.832;2024-03-23T01:20:28;21.97;;;5.67;;
8100;SDS011;4093;53.470;9.832;2024-03-23T01:22:55;28.13;;;6.80;;
8100;SDS011;4093;53.470;9.832;2024-03-23T01:25:21;22.83;;;6.50;;
8100;SDS011;4093;53.470;9.832;2024-03-23T01:27:49;22.30;;;6.07;;
8100;SDS011;4093;53.470;9.832;2024-03-23T01:30:15;35.80;;;7.23;;
8100;SDS011;4093;53.470;9.832;2024-03-23T01:32:41;29.83;;;6.03;;
8100;SDS011;4093;53.470;9.832;2024-03-23T01:35:08;26.20;;;6.50;;
8100;SDS011;4093;53.470;9.832;2024-03-23T01:37:35;24.07;;;5.53;;
8100;SDS011;4093;53.470;9.832;2024-03-23T01:40:01;28.83;;;6.67;;
8100;SDS011;4093;53.470;9.832;2024-03-23T01:42:29;26.13;;;6.60;;
8100;SDS011;4093;53.470;9.832;2024-03-23T01:44:56;27.00;;;5.70;;
8100;SDS011;4093;53.470;9.832;2024-03-23T01:47:23;21.37;;;6.47;;
8100;SDS011;4093;53.470;9.832;2024-03-23T01:49:49;25.33;;;5.40;;
8100;SDS011;4093;53.470;9.832;2024-03-23T01:52:16;21.60;;;5.67;;
8100;SDS011;4093;53.470;9.832;2024-03-23T01:54:42;17.77;;;5.13;;
8100;SDS011;4093;53.470;9.832;2024-03-23T01:57:09;18.30;;;5.47;;
8100;SDS011;4093;53.470;9.832;2024-03-23T01:59:35;17.80;;;5.73;;
8100;SDS011;4093;53.470;9.832;2024-03-23T02:02:04;21.43;;;5.57;;
8100;SDS011;4093;53.470;9.832;2024-03-23T02:04:30;21.70;;;5.17;;
8100;SDS011;4093;53.470;9.832;2024-03-23T02:06:56;15.07;;;5.40;;
8100;SDS011;4093;53.470;9.832;2024-03-23T02:09:22;17.73;;;5.10;;
8100;SDS011;4093;53.470;9.832;2024-03-23T02:11:49;19.87;;;5.30;;
8100;SDS011;4093;53.470;9.832;2024-03-23T02:14:15;23.87;;;6.80;;
8100;SDS011;4093;53.470;9.832;2024-03-23T02:16:42;28.03;;;6.50;;
8100;SDS011;4093;53.470;9.832;2024-03-23T02:19:10;26.83;;;5.93;;
8100;SDS011;4093;53.470;9.832;2024-03-23T02:21:36;21.63;;;6.23;;
8100;SDS011;4093;53.470;9.832;2024-03-23T02:24:04;26.47;;;5.57;;
8100;SDS011;4093;53.470;9.832;2024-03-23T02:26:31;22.83;;;5.80;;
8100;SDS011;4093;53.470;9.832;2024-03-23T02:28:57;26.20;;;5.90;;
8100;SDS011;4093;53.470;9.832;2024-03-23T02:31:23;23.47;;;6.10;;
8100;SDS011;4093;53.470;9.832;2024-03-23T02:33:49;25.77;;;6.73;;
8100;SDS011;4093;53.470;9.832;2024-03-23T02:36:16;22.60;;;5.97;;
8100;SDS011;4093;53.470;9.832;2024-03-23T02:38:41;24.07;;;6.00;;
8100;SDS011;4093;53.470;9.832;2024-03-23T02:41:10;23.77;;;6.00;;
8100;SDS011;4093;53.470;9.832;2024-03-23T02:43:35;20.57;;;6.57;;
8100;SDS011;4093;53.470;9.832;2024-03-23T02:46:02;21.93;;;5.33;;
8100;SDS011;4093;53.470;9.832;2024-03-23T02:48:29;25.27;;;5.73;;
8100;SDS011;4093;53.470;9.832;2024-03-23T02:50:56;20.70;;;5.10;;
8100;SDS011;4093;53.470;9.832;2024-03-23T02:53:22;27.80;;;6.00;;
8100;SDS011;4093;53.470;9.832;2024-03-23T02:55:48;22.10;;;5.70;;
8100;SDS011;4093;53.470;9.832;2024-03-23T02:58:15;29.53;;;7.20;;
8100;SDS011;4093;53.470;9.832;2024-03-23T03:00:42;24.07;;;5.53;;
8100;SDS011;4093;53.470;9.832;2024-03-23T03:03:08;30.80;;;7.17;;
8100;SDS011;4093;53.470;9.832;2024-03-23T03:05:34;20.57;;;6.10;;
8100;SDS011;4093;53.470;9.832;2024-03-23T03:08:00;20.43;;;6.00;;
8100;SDS011;4093;53.470;9.832;2024-03-23T03:10:27;29.40;;;5.27;;
8100;SDS011;4093;53.470;9.832;2024-03-23T03:12:53;21.10;;;5.70;;
8100;SDS011;4093;53.470;9.832;2024-03-23T03:15:21;25.97;;;6.03;;
8100;SDS011;4093;53.470;9.832;2024-03-23T03:17:47;24.10;;;5.47;;
8100;SDS011;4093;53.470;9.832;2024-03-23T03:20:13;20.47;;;5.70;;
8100;SDS011;4093;53.470;9.832;2024-03-23T03:22:41;18.60;;;5.60;;
8100;SDS011;4093;53.470;9.832;2024-03-23T03:25:08;23.87;;;6.57;;
8100;SDS011;4093;53.470;9.832;2024-03-23T03:27:33;20.17;;;5.00;;
8100;SDS011;4093;53.470;9.832;2024-03-23T03:30:00;16.23;;;5.20;;
8100;SDS011;4093;53.470;9.832;2024-03-23T03:32:29;25.90;;;7.77;;
8100;SDS011;4093;53.470;9.832;2024-03-23T03:34:56;24.93;;;6.00;;
8100;SDS011;4093;53.470;9.832;2024-03-23T03:37:22;14.47;;;4.77;;
8100;SDS011;4093;53.470;9.832;2024-03-23T03:39:48;21.50;;;5.70;;
8100;SDS011;4093;53.470;9.832;2024-03-23T03:42:14;29.50;;;6.00;;
8100;SDS011;4093;53.470;9.832;2024-03-23T03:44:41;19.60;;;5.30;;
8100;SDS011;4093;53.470;9.832;2024-03-23T03:47:07;21.53;;;5.50;;
8100;SDS011;4093;53.470;9.832;2024-03-23T03:49:35;23.10;;;5.73;;
8100;SDS011;4093;53.470;9.832;2024-03-23T03:52:00;23.90;;;5.80;;
8100;SDS011;4093;53.470;9.832;2024-03-23T03:54:27;22.27;;;5.83;;
8100;SDS011;4093;53.470;9.832;2024-03-23T03:56:53;29.33;;;5.50;;
8100;SDS011;4093;53.470;9.832;2024-03-23T03:59:20;14.30;;;5.67;;
8100;SDS011;4093;53.470;9.832;2024-03-23T04:01:46;16.40;;;5.90;;
8100;SDS011;4093;53.470;9.832;2024-03-23T04:04:13;20.23;;;6.27;;
8100;SDS011;4093;53.470;9.832;2024-03-23T04:06:40;25.87;;;5.70;;
8100;SDS011;4093;53.470;9.832;2024-03-23T04:09:07;23.97;;;5.20;;
8100;SDS011;4093;53.470;9.832;2024-03-23T04:11:33;26.07;;;5.23;;
8100;SDS011;4093;53.470;9.832;2024-03-23T04:13:59;20.43;;;4.87;;
8100;SDS011;4093;53.470;9.832;2024-03-23T04:16:26;21.80;;;5.67;;
8100;SDS011;4093;53.470;9.832;2024-03-23T04:18:53;25.20;;;5.33;;
8100;SDS011;4093;53.470;9.832;2024-03-23T04:21:19;20.37;;;4.50;;
8100;SDS011;4093;53.470;9.832;2024-03-23T04:23:47;21.40;;;4.97;;
8100;SDS011;4093;53.470;9.832;2024-03-23T04:26:13;28.77;;;7.00;;
8100;SDS011;4093;53.470;9.832;2024-03-23T04:28:41;18.13;;;5.47;;
8100;SDS011;4093;53.470;9.832;2024-03-23T04:31:07;18.23;;;5.47;;
8100;SDS011;4093;53.470;9.832;2024-03-23T04:33:34;26.60;;;5.77;;
8100;SDS011;4093;53.470;9.832;2024-03-23T04:35:59;22.80;;;5.30;;
8100;SDS011;4093;53.470;9.832;2024-03-23T04:38:26;18.43;;;5.50;;
8100;SDS011;4093;53.470;9.832;2024-03-23T04:40:55;23.07;;;5.07;;
8100;SDS011;4093;53.470;9.832;2024-03-23T04:43:21;21.80;;;5.27;;
8100;SDS011;4093;53.470;9.832;2024-03-23T04:45:48;20.87;;;6.27;;
8100;SDS011;4093;53.470;9.832;2024-03-23T04:48:15;23.43;;;5.77;;
8100;SDS011;4093;53.470;9.832;2024-03-23T04:50:41;26.93;;;5.73;;
8100;SDS011;4093;53.470;9.832;2024-03-23T04:53:08;19.70;;;5.37;;
8100;SDS011;4093;53.470;9.832;2024-03-23T04:55:34;18.67;;;5.67;;
8100;SDS011;4093;53.470;9.832;2024-03-23T04:58:02;16.00;;;5.97;;
8100;SDS011;4093;53.470;9.832;2024-03-23T05:00:28;23.47;;;4.87;;
8100;SDS011;4093;53.470;9.832;2024-03-23T05:02:55;26.80;;;5.53;;
8100;SDS011;4093;53.470;9.832;2024-03-23T05:05:21;20.77;;;5.10;;
8100;SDS011;4093;53.470;9.832;2024-03-23T05:07:47;21.90;;;6.10;;
8100;SDS011;4093;53.470;9.832;2024-03-23T05:10:14;27.40;;;5.63;;
8100;SDS011;4093;53.470;9.832;2024-03-23T05:12:40;27.27;;;6.50;;
8100;SDS011;4093;53.470;9.832;2024-03-23T05:15:08;29.07;;;5.43;;
8100;SDS011;4093;53.470;9.832;2024-03-23T05:17:34;24.30;;;5.80;;
8100;SDS011;4093;53.470;9.832;2024-03-23T05:20:01;19.83;;;5.50;;
8100;SDS011;4093;53.470;9.832;2024-03-23T05:22:28;17.13;;;5.43;;
8100;SDS011;4093;53.470;9.832;2024-03-23T05:24:55;27.53;;;7.23;;
8100;SDS011;4093;53.470;9.832;2024-03-23T05:27:21;20.73;;;5.33;;
8100;SDS011;4093;53.470;9.832;2024-03-23T05:29:48;17.93;;;6.00;;
8100;SDS011;4093;53.470;9.832;2024-03-23T05:32:15;21.77;;;5.13;;
8100;SDS011;4093;53.470;9.832;2024-03-23T05:34:42;27.00;;;6.10;;
8100;SDS011;4093;53.470;9.832;2024-03-23T05:37:09;22.87;;;5.87;;
8100;SDS011;4093;53.470;9.832;2024-03-23T05:39:36;23.03;;;5.47;;
8100;SDS011;4093;53.470;9.832;2024-03-23T05:42:01;27.13;;;5.13;;
8100;SDS011;4093;53.470;9.832;2024-03-23T05:44:28;17.83;;;5.67;;
8100;SDS011;4093;53.470;9.832;2024-03-23T05:46:54;22.90;;;5.37;;
8100;SDS011;4093;53.470;9.832;2024-03-23T05:49:22;22.07;;;6.40;;
8100;SDS011;4093;53.470;9.832;2024-03-23T05:51:48;20.60;;;5.17;;
8100;SDS011;4093;53.470;9.832;2024-03-23T05:54:14;20.63;;;4.87;;
8100;SDS011;4093;53.470;9.832;2024-03-23T05:56:40;30.53;;;6.10;;
8100;SDS011;4093;53.470;9.832;2024-03-23T05:59:07;24.67;;;5.23;;
8100;SDS011;4093;53.470;9.832;2024-03-23T06:01:33;23.83;;;5.40;;
8100;SDS011;4093;53.470;9.832;2024-03-23T06:04:00;16.30;;;4.80;;
8100;SDS011;4093;53.470;9.832;2024-03-23T06:06:29;25.83;;;5.57;;
8100;SDS011;4093;53.470;9.832;2024-03-23T06:08:55;23.20;;;5.83;;
8100;SDS011;4093;53.470;9.832;2024-03-23T06:11:22;23.13;;;5.50;;
8100;SDS011;4093;53.470;9.832;2024-03-23T06:13:48;24.73;;;5.50;;
8100;SDS011;4093;53.470;9.832;2024-03-23T06:16:14;25.10;;;5.43;;
8100;SDS011;4093;53.470;9.832;2024-03-23T06:18:40;24.27;;;5.97;;
8100;SDS011;4093;53.470;9.832;2024-03-23T06:21:12;22.13;;;5.10;;
8100;SDS011;4093;53.470;9.832;2024-03-23T06:23:40;13.90;;;4.90;;
8100;SDS011;4093;53.470;9.832;2024-03-23T06:26:07;15.87;;;4.93;;
8100;SDS011;4093;53.470;9.832;2024-03-23T06:28:33;21.67;;;6.00;;
8100;SDS011;4093;53.470;9.832;2024-03-23T06:31:01;17.60;;;4.93;;
8100;SDS011;4093;53.470;9.832;2024-03-23T06:33:27;23.07;;;5.53;;
8100;SDS011;4093;53.470;9.832;2024-03-23T06:35:54;21.97;;;4.97;;
8100;SDS011;4093;53.470;9.832;2024-03-23T06:38:20;26.43;;;5.67;;
8100;SDS011;4093;53.470;9.832;2024-03-23T06:40:48;23.67;;;5.50;;
8100;SDS011;4093;53.470;9.832;2024-03-23T06:43:16;15.87;;;4.80;;
8100;SDS011;4093;53.470;9.832;2024-03-23T06:45:42;21.53;;;5.27;;
8100;SDS011;4093;53.470;9.832;2024-03-23T06:48:08;20.37;;;5.13;;
8100;SDS011;4093;53.470;9.832;2024-03-23T06:50:35;23.40;;;5.13;;
8100;SDS011;4093;53.470;9.832;2024-03-23T06:53:01;16.77;;;5.57;;
8100;SDS011;4093;53.470;9.832;2024-03-23T06:55:27;16.43;;;4.73;;
8100;SDS011;4093;53.470;9.832;2024-03-23T06:57:56;17.83;;;5.40;;
8100;SDS011;4093;53.470;9.832;2024-03-23T07:00:22;20.33;;;5.40;;
8100;SDS011;4093;53.470;9.832;2024-03-23T07:02:50;24.90;;;5.67;;
8100;SDS011;4093;53.470;9.832;2024-03-23T07:05:16;18.43;;;5.50;;
8100;SDS011;4093;53.470;9.832;2024-03-23T07:07:42;18.10;;;4.83;;
8100;SDS011;4093;53.470;9.832;2024-03-23T07:10:08;17.50;;;6.30;;
8100;SDS011;4093;53.470;9.832;2024-03-23T07:12:35;22.47;;;5.90;;
8100;SDS011;4093;53.470;9.832;2024-03-23T07:15:03;18.00;;;5.77;;
8100;SDS011;4093;53.470;9.832;2024-03-23T07:17:30;15.27;;;5.03;;
8100;SDS011;4093;53.470;9.832;2024-03-23T07:19:57;18.03;;;5.50;;
8100;SDS011;4093;53.470;9.832;2024-03-23T07:22:26;14.40;;;4.83;;
8100;SDS011;4093;53.470;9.832;2024-03-23T07:24:52;21.13;;;5.60;;
8100;SDS011;4093;53.470;9.832;2024-03-23T07:27:19;17.23;;;5.27;;
8100;SDS011;4093;53.470;9.832;2024-03-23T07:29:45;19.33;;;5.03;;
8100;SDS011;4093;53.470;9.832;2024-03-23T07:32:13;20.40;;;5.47;;
8100;SDS011;4093;53.470;9.832;2024-03-23T07:34:38;17.57;;;6.50;;
8100;SDS011;4093;53.470;9.832;2024-03-23T07:37:05;18.37;;;4.97;;
8100;SDS011;4093;53.470;9.832;2024-03-23T07:39:31;15.73;;;5.30;;
8100;SDS011;4093;53.470;9.832;2024-03-23T07:41:59;20.27;;;4.27;;
8100;SDS011;4093;53.470;9.832;2024-03-23T07:44:25;15.10;;;4.70;;
8100;SDS011;4093;53.470;9.832;2024-03-23T07:46:52;17.50;;;5.03;;
8100;SDS011;4093;53.470;9.832;2024-03-23T07:49:19;14.35;;;4.85;;
8100;SDS011;4093;53.470;9.832;2024-03-23T07:51:46;18.25;;;4.93;;
8100;SDS011;4093;53.470;9.832;2024-03-23T07:54:11;13.98;;;4.55;;
8100;SDS011;4093;53.470;9.832;2024-03-23T07:56:38;14.90;;;4.88;;
8100;SDS011;4093;53.470;9.832;2024-03-23T07:59:04;13.30;;;4.38;;
8100;SDS011;4093;53.470;9.832;2024-03-23T08:01:30;9.73;;;4.28;;
8100;SDS011;4093;53.470;9.832;2024-03-23T08:03:56;13.68;;;4.72;;
8100;SDS011;4093;53.470;9.832;2024-03-23T08:06:24;12.40;;;4.53;;
8100;SDS011;4093;53.470;9.832;2024-03-23T08:08:51;11.90;;;4.28;;
8100;SDS011;4093;53.470;9.832;2024-03-23T08:11:24;12.10;;;4.90;;
8100;SDS011;4093;53.470;9.832;2024-03-23T08:13:50;12.95;;;4.45;;
8100;SDS011;4093;53.470;9.832;2024-03-23T08:16:17;14.68;;;4.40;;
8100;SDS011;4093;53.470;9.832;2024-03-23T08:18:43;11.88;;;4.88;;
8100;SDS011;4093;53.470;9.832;2024-03-23T08:21:09;9.48;;;4.07;;
8100;SDS011;4093;53.470;9.832;2024-03-23T08:23:37;14.68;;;5.05;;
8100;SDS011;4093;53.470;9.832;2024-03-23T08:26:05;12.93;;;4.82;;
8100;SDS011;4093;53.470;9.832;2024-03-23T08:28:31;9.90;;;4.25;;
8100;SDS011;4093;53.470;9.832;2024-03-23T08:31:00;18.10;;;4.90;;
8100;SDS011;4093;53.470;9.832;2024-03-23T08:33:26;14.07;;;4.55;;
8100;SDS011;4093;53.470;9.832;2024-03-23T08:35:53;11.48;;;4.35;;
8100;SDS011;4093;53.470;9.832;2024-03-23T08:38:20;12.70;;;4.30;;
8100;SDS011;4093;53.470;9.832;2024-03-23T08:40:55;12.77;;;4.40;;
8100;SDS011;4093;53.470;9.832;2024-03-23T08:43:22;13.23;;;3.60;;
8100;SDS011;4093;53.470;9.832;2024-03-23T08:45:48;15.35;;;4.45;;
8100;SDS011;4093;53.470;9.832;2024-03-23T08:48:15;15.18;;;4.55;;
8100;SDS011;4093;53.470;9.832;2024-03-23T08:50:42;14.43;;;3.95;;
8100;SDS011;4093;53.470;9.832;2024-03-23T08:53:08;11.73;;;4.00;;
8100;SDS011;4093;53.470;9.832;2024-03-23T08:55:34;18.60;;;4.87;;
8100;SDS011;4093;53.470;9.832;2024-03-23T08:58:03;15.30;;;4.83;;
8100;SDS011;4093;53.470;9.832;2024-03-23T09:00:29;13.20;;;4.57;;
8100;SDS011;4093;53.470;9.832;2024-03-23T09:02:56;12.20;;;4.27;;
8100;SDS011;4093;53.470;9.832;2024-03-23T09:05:22;13.05;;;4.63;;
8100;SDS011;4093;53.470;9.832;2024-03-23T09:07:49;13.23;;;4.47;;
8100;SDS011;4093;53.470;9.832;2024-03-23T09:10:15;17.63;;;4.68;;
8100;SDS011;4093;53.470;9.832;2024-03-23T09:12:42;13.38;;;4.85;;
8100;SDS011;4093;53.470;9.832;2024-03-23T09:15:10;14.38;;;3.85;;
8100;SDS011;4093;53.470;9.832;2024-03-23T09:17:37;11.23;;;4.25;;
8100;SDS011;4093;53.470;9.832;2024-03-23T09:20:03;15.17;;;4.20;;
8100;SDS011;4093;53.470;9.832;2024-03-23T09:22:31;14.27;;;4.00;;
8100;SDS011;4093;53.470;9.832;2024-03-23T09:24:56;13.83;;;3.87;;
8100;SDS011;4093;53.470;9.832;2024-03-23T09:27:23;13.37;;;4.40;;
8100;SDS011;4093;53.470;9.832;2024-03-23T09:29:49;12.20;;;3.90;;
8100;SDS011;4093;53.470;9.832;2024-03-23T09:32:17;12.60;;;4.10;;
8100;SDS011;4093;53.470;9.832;2024-03-23T09:34:43;12.83;;;4.03;;
8100;SDS011;4093;53.470;9.832;2024-03-23T09:37:09;13.97;;;4.13;;
8100;SDS011;4093;53.470;9.832;2024-03-23T09:39:35;13.00;;;3.60;;
8100;SDS011;4093;53.470;9.832;2024-03-23T09:42:02;15.87;;;4.43;;
8100;SDS011;4093;53.470;9.832;2024-03-23T09:44:29;12.70;;;4.10;;
8100;SDS011;4093;53.470;9.832;2024-03-23T09:46:56;9.77;;;3.50;;
8100;SDS011;4093;53.470;9.832;2024-03-23T09:49:23;12.97;;;4.03;;
8100;SDS011;4093;53.470;9.832;2024-03-23T09:51:50;11.90;;;3.97;;
8100;SDS011;4093;53.470;9.832;2024-03-23T09:54:16;12.07;;;3.70;;
8100;SDS011;4093;53.470;9.832;2024-03-23T09:56:43;18.80;;;4.73;;
8100;SDS011;4093;53.470;9.832;2024-03-23T09:59:08;8.70;;;3.67;;
8100;SDS011;4093;53.470;9.832;2024-03-23T10:01:35;9.67;;;3.93;;
8100;SDS011;4093;53.470;9.832;2024-03-23T10:04:01;10.87;;;3.13;;
8100;SDS011;4093;53.470;9.832;2024-03-23T10:06:31;12.27;;;3.87;;
8100;SDS011;4093;53.470;9.832;2024-03-23T10:08:56;10.47;;;3.20;;
8100;SDS011;4093;53.470;9.832;2024-03-23T10:11:23;9.37;;;3.10;;
8100;SDS011;4093;53.470;9.832;2024-03-23T10:13:51;11.57;;;4.03;;
8100;SDS011;4093;53.470;9.832;2024-03-23T10:16:21;10.60;;;3.27;;
8100;SDS011;4093;53.470;9.832;2024-03-23T10:18:48;7.67;;;3.43;;
8100;SDS011;4093;53.470;9.832;2024-03-23T10:21:15;11.97;;;4.23;;
8100;SDS011;4093;53.470;9.832;2024-03-23T10:23:43;6.17;;;2.80;;
8100;SDS011;4093;53.470;9.832;2024-03-23T10:26:16;12.47;;;3.43;;
8100;SDS011;4093;53.470;9.832;2024-03-23T10:28:50;8.97;;;3.50;;
8100;SDS011;4093;53.470;9.832;2024-03-23T10:31:18;11.00;;;2.87;;
8100;SDS011;4093;53.470;9.832;2024-03-23T10:33:44;9.23;;;3.00;;
8100;SDS011;4093;53.470;9.832;2024-03-23T10:36:12;11.30;;;4.40;;
8100;SDS011;4093;53.470;9.832;2024-03-23T10:38:39;8.20;;;2.90;;
8100;SDS011;4093;53.470;9.832;2024-03-23T10:41:09;8.30;;;3.17;;
8100;SDS011;4093;53.470;9.832;2024-03-23T10:43:35;10.53;;;3.60;;
8100;SDS011;4093;53.470;9.832;2024-03-23T10:46:02;11.07;;;3.13;;
8100;SDS011;4093;53.470;9.832;2024-03-23T10:48:29;8.17;;;2.57;;
8100;SDS011;4093;53.470;9.832;2024-03-23T10:50:55;7.50;;;2.50;;
8100;SDS011;4093;53.470;9.832;2024-03-23T10:53:21;7.37;;;2.50;;
8100;SDS011;4093;53.470;9.832;2024-03-23T10:55:52;6.13;;;2.77;;
8100;SDS011;4093;53.470;9.832;2024-03-23T10:58:23;6.13;;;2.57;;
8100;SDS011;4093;53.470;9.832;2024-03-23T11:00:51;5.27;;;2.40;;
8100;SDS011;4093;53.470;9.832;2024-03-23T11:06:02;9.37;;;3.70;;
8100;SDS011;4093;53.470;9.832;2024-03-23T11:08:38;11.20;;;3.83;;
8100;SDS011;4093;53.470;9.832;2024-03-23T11:13:58;7.10;;;3.27;;
8100;SDS011;4093;53.470;9.832;2024-03-23T11:16:26;7.53;;;2.63;;
8100;SDS011;4093;53.470;9.832;2024-03-23T11:18:53;8.10;;;2.73;;
8100;SDS011;4093;53.470;9.832;2024-03-23T11:24:18;6.50;;;2.70;;
8100;SDS011;4093;53.470;9.832;2024-03-23T11:26:46;7.70;;;3.10;;
8100;SDS011;4093;53.470;9.832;2024-03-23T11:29:15;6.80;;;2.97;;
8100;SDS011;4093;53.470;9.832;2024-03-23T11:31:55;8.80;;;2.87;;
8100;SDS011;4093;53.470;9.832;2024-03-23T11:34:24;10.27;;;3.73;;
8100;SDS011;4093;53.470;9.832;2024-03-23T11:36:51;7.67;;;2.80;;
8100;SDS011;4093;53.470;9.832;2024-03-23T11:39:29;5.57;;;2.20;;
8100;SDS011;4093;53.470;9.832;2024-03-23T11:41:56;3.33;;;2.60;;
8100;SDS011;4093;53.470;9.832;2024-03-23T11:44:24;8.30;;;2.87;;
8100;SDS011;4093;53.470;9.832;2024-03-23T11:46:52;5.07;;;2.80;;
8100;SDS011;4093;53.470;9.832;2024-03-23T11:49:22;8.83;;;3.33;;
8100;SDS011;4093;53.470;9.832;2024-03-23T11:51:49;7.57;;;2.80;;
8100;SDS011;4093;53.470;9.832;2024-03-23T11:54:19;7.73;;;2.93;;
8100;SDS011;4093;53.470;9.832;2024-03-23T11:56:56;8.57;;;2.87;;
8100;SDS011;4093;53.470;9.832;2024-03-23T11:59:31;10.30;;;3.30;;
8100;SDS011;4093;53.470;9.832;2024-03-23T12:02:05;8.10;;;3.10;;
8100;SDS011;4093;53.470;9.832;2024-03-23T12:04:31;6.53;;;2.63;;
8100;SDS011;4093;53.470;9.832;2024-03-23T12:07:09;8.20;;;3.10;;
8100;SDS011;4093;53.470;9.832;2024-03-23T12:09:36;10.30;;;3.10;;
8100;SDS011;4093;53.470;9.832;2024-03-23T12:12:07;8.13;;;2.77;;
8100;SDS011;4093;53.470;9.832;2024-03-23T12:14:35;5.90;;;2.60;;
8100;SDS011;4093;53.470;9.832;2024-03-23T12:17:07;8.87;;;3.30;;
8100;SDS011;4093;53.470;9.832;2024-03-23T12:19:36;6.37;;;2.60;;
8100;SDS011;4093;53.470;9.832;2024-03-23T12:22:03;5.97;;;2.50;;
8100;SDS011;4093;53.470;9.832;2024-03-23T12:24:30;6.67;;;2.50;;
8100;SDS011;4093;53.470;9.832;2024-03-23T12:26:59;5.30;;;2.73;;
8100;SDS011;4093;53.470;9.832;2024-03-23T12:29:26;6.20;;;2.53;;
8100;SDS011;4093;53.470;9.832;2024-03-23T12:31:55;5.90;;;2.50;;
8100;SDS011;4093;53.470;9.832;2024-03-23T12:34:21;4.97;;;2.47;;
8100;SDS011;4093;53.470;9.832;2024-03-23T12:36:48;5.83;;;2.10;;
8100;SDS011;4093;53.470;9.832;2024-03-23T12:39:13;4.33;;;2.13;;
8100;SDS011;4093;53.470;9.832;2024-03-23T12:41:40;4.07;;;2.00;;
8100;SDS011;4093;53.470;9.832;2024-03-23T12:44:06;3.27;;;1.80;;
8100;SDS011;4093;53.470;9.832;2024-03-23T12:46:34;4.17;;;1.97;;
8100;SDS011;4093;53.470;9.832;2024-03-23T12:49:01;2.47;;;1.97;;
8100;SDS011;4093;53.470;9.832;2024-03-23T12:51:28;4.23;;;2.33;;
8100;SDS011;4093;53.470;9.832;2024-03-23T12:53:54;5.27;;;2.20;;
8100;SDS011;4093;53.470;9.832;2024-03-23T12:56:20;3.43;;;1.90;;
8100;SDS011;4093;53.470;9.832;2024-03-23T12:58:46;4.23;;;2.27;;
8100;SDS011;4093;53.470;9.832;2024-03-23T13:01:16;5.80;;;2.23;;
8100;SDS011;4093;53.470;9.832;2024-03-23T13:03:42;4.27;;;2.20;;
8100;SDS011;4093;53.470;9.832;2024-03-23T13:06:11;4.87;;;2.60;;
8100;SDS011;4093;53.470;9.832;2024-03-23T13:08:36;3.53;;;2.00;;
8100;SDS011;4093;53.470;9.832;2024-03-23T13:11:04;4.00;;;2.33;;
8100;SDS011;4093;53.470;9.832;2024-03-23T13:14:29;6.20;;;2.30;;
8100;SDS011;4093;53.470;9.832;2024-03-23T13:16:56;3.17;;;2.30;;
8100;SDS011;4093;53.470;9.832;2024-03-23T13:19:22;6.13;;;2.70;;
8100;SDS011;4093;53.470;9.832;2024-03-23T13:21:53;5.53;;;2.33;;
8100;SDS011;4093;53.470;9.832;2024-03-23T13:24:21;5.97;;;2.40;;
8100;SDS011;4093;53.470;9.832;2024-03-23T13:26:49;2.63;;;1.90;;
8100;SDS011;4093;53.470;9.832;2024-03-23T13:29:15;2.23;;;1.90;;
8100;SDS011;4093;53.470;9.832;2024-03-23T13:31:42;2.10;;;1.87;;
8100;SDS011;4093;53.470;9.832;2024-03-23T13:34:08;2.03;;;1.83;;
8100;SDS011;4093;53.470;9.832;2024-03-23T13:36:35;2.40;;;1.70;;
8100;SDS011;4093;53.470;9.832;2024-03-23T13:39:02;3.23;;;2.23;;
8100;SDS011;4093;53.470;9.832;2024-03-23T13:41:34;5.43;;;2.43;;
8100;SDS011;4093;53.470;9.832;2024-03-23T13:44:00;2.17;;;1.70;;
8100;SDS011;4093;53.470;9.832;2024-03-23T13:46:26;3.60;;;1.60;;
8100;SDS011;4093;53.470;9.832;2024-03-23T13:48:52;3.43;;;2.00;;
8100;SDS011;4093;53.470;9.832;2024-03-23T13:51:22;2.17;;;1.70;;
8100;SDS011;4093;53.470;9.832;2024-03-23T13:53:49;2.00;;;1.40;;
8100;SDS011;4093;53.470;9.832;2024-03-23T13:56:17;1.73;;;1.60;;
8100;SDS011;4093;53.470;9.832;2024-03-23T13:58:43;2.30;;;1.80;;
8100;SDS011;4093;53.470;9.832;2024-03-23T14:01:12;3.70;;;2.00;;
8100;SDS011;4093;53.470;9.832;2024-03-23T14:03:39;1.97;;;1.80;;
8100;SDS011;4093;53.470;9.832;2024-03-23T14:06:06;3.07;;;2.00;;
8100;SDS011;4093;53.470;9.832;2024-03-23T14:08:33;3.70;;;2.00;;
8100;SDS011;4093;53.470;9.832;2024-03-23T14:11:01;6.57;;;1.90;;
8100;SDS011;4093;53.470;9.832;2024-03-23T14:13:30;5.50;;;2.27;;
8100;SDS011;4093;53.470;9.832;2024-03-23T14:15:57;3.50;;;2.10;;
8100;SDS011;4093;53.470;9.832;2024-03-23T14:18:23;3.70;;;1.77;;
8100;SDS011;4093;53.470;9.832;2024-03-23T14:20:51;3.57;;;1.80;;
8100;SDS011;4093;53.470;9.832;2024-03-23T14:23:19;3.50;;;2.40;;
8100;SDS011;4093;53.470;9.832;2024-03-23T14:25:45;7.07;;;2.10;;
8100;SDS011;4093;53.470;9.832;2024-03-23T14:28:12;4.93;;;2.20;;
8100;SDS011;4093;53.470;9.832;2024-03-23T14:30:41;4.50;;;2.53;;
8100;SDS011;4093;53.470;9.832;2024-03-23T14:33:08;2.90;;;1.97;;
8100;SDS011;4093;53.470;9.832;2024-03-23T14:35:34;9.00;;;2.60;;
8100;SDS011;4093;53.470;9.832;2024-03-23T14:38:01;3.83;;;1.90;;
8100;SDS011;4093;53.470;9.832;2024-03-23T14:40:27;7.77;;;2.43;;
8100;SDS011;4093;53.470;9.832;2024-03-23T14:42:54;8.73;;;2.47;;
8100;SDS011;4093;53.470;9.832;2024-03-23T14:45:20;4.40;;;2.03;;
8100;SDS011;4093;53.470;9.832;2024-03-23T14:47:48;2.47;;;1.97;;
8100;SDS011;4093;53.470;9.832;2024-03-23T14:50:14;3.87;;;2.30;;
8100;SDS011;4093;53.470;9.832;2024-03-23T14:52:42;5.07;;;2.20;;
8100;SDS011;4093;53.470;9.832;2024-03-23T14:55:09;3.80;;;2.20;;
8100;SDS011;4093;53.470;9.832;2024-03-23T14:57:36;4.47;;;2.23;;
8100;SDS011;4093;53.470;9.832;2024-03-23T15:00:06;7.27;;;2.70;;
8100;SDS011;4093;53.470;9.832;2024-03-23T15:02:35;8.67;;;2.87;;
8100;SDS011;4093;53.470;9.832;2024-03-23T15:05:03;3.97;;;1.90;;
8100;SDS011;4093;53.470;9.832;2024-03-23T15:07:30;2.77;;;2.00;;
8100;SDS011;4093;53.470;9.832;2024-03-23T15:09:56;4.23;;;1.83;;
8100;SDS011;4093;53.470;9.832;2024-03-23T15:12:23;3.13;;;1.57;;
8100;SDS011;4093;53.470;9.832;2024-03-23T15:14:49;6.73;;;1.90;;
8100;SDS011;4093;53.470;9.832;2024-03-23T15:17:15;1.40;;;1.30;;
8100;SDS011;4093;53.470;9.832;2024-03-23T15:19:42;2.10;;;1.70;;
8100;SDS011;4093;53.470;9.832;2024-03-23T15:22:10;3.13;;;1.60;;
8100;SDS011;4093;53.470;9.832;2024-03-23T15:24:36;1.87;;;1.67;;
8100;SDS011;4093;53.470;9.832;2024-03-23T15:27:03;4.43;;;1.93;;
8100;SDS011;4093;53.470;9.832;2024-03-23T15:29:29;4.70;;;2.10;;
8100;SDS011;4093;53.470;9.832;2024-03-23T15:31:56;2.40;;;2.20;;
8100;SDS011;4093;53.470;9.832;2024-03-23T15:34:22;3.37;;;2.30;;
8100;SDS011;4093;53.470;9.832;2024-03-23T15:36:49;10.20;;;5.70;;
8100;SDS011;4093;53.470;9.832;2024-03-23T15:39:17;3.97;;;1.97;;
8100;SDS011;4093;53.470;9.832;2024-03-23T15:41:45;7.93;;;3.03;;
8100;SDS011;4093;53.470;9.832;2024-03-23T15:44:11;4.27;;;2.23;;
8100;SDS011;4093;53.470;9.832;2024-03-23T15:46:37;2.83;;;2.00;;
8100;SDS011;4093;53.470;9.832;2024-03-23T15:49:03;6.13;;;2.47;;
8100;SDS011;4093;53.470;9.832;2024-03-23T15:51:30;4.77;;;2.47;;
8100;SDS011;4093;53.470;9.832;2024-03-23T15:53:58;2.93;;;2.33;;
8100;SDS011;4093;53.470;9.832;2024-03-23T15:56:26;3.70;;;2.50;;
8100;SDS011;4093;53.470;9.832;2024-03-23T15:58:54;4.07;;;2.10;;
8100;SDS011;4093;53.470;9.832;2024-03-23T16:01:21;5.50;;;1.90;;
8100;SDS011;4093;53.470;9.832;2024-03-23T16:03:47;4.93;;;2.40;;
8100;SDS011;4093;53.470;9.832;2024-03-23T16:06:13;4.07;;;2.20;;
8100;SDS011;4093;53.470;9.832;2024-03-23T16:08:39;4.70;;;2.30;;